createdAt,value
2019-02-20T00:02:19.231Z,10.50
2019-02-20T00:04:45.567Z,11.00
2019-02-20T00:07:12.156Z,10.33
2019-02-20T00:09:38.476Z,11.43
2019-02-20T00:12:05.146Z,10.63
2019-02-20T00:14:31.470Z,11.00
2019-02-20T00:16:57.804Z,11.03
2019-02-20T00:19:24.144Z,12.63
2019-02-20T00:21:50.448Z,12.70
2019-02-20T00:24:16.801Z,10.47
2019-02-20T00:26:43.133Z,11.27
2019-02-20T00:29:09.483Z,11.43
2019-02-20T00:31:35.790Z,11.10
2019-02-20T00:34:02.412Z,9.37
2019-02-20T00:36:28.778Z,10.97
2019-02-20T00:38:55.124Z,12.00
2019-02-20T00:41:21.435Z,12.47
2019-02-20T00:43:49.660Z,12.87
2019-02-20T00:46:17.891Z,11.40
2019-02-20T00:48:48.751Z,11.87
2019-02-20T00:51:17.208Z,12.00
2019-02-20T00:53:46.417Z,11.80
2019-02-20T00:56:13.994Z,10.67
2019-02-20T00:58:40.303Z,12.70
2019-02-20T01:01:06.641Z,12.87
2019-02-20T01:03:32.988Z,12.60
2019-02-20T01:05:59.325Z,12.50
2019-02-20T01:08:25.672Z,10.80
2019-02-20T01:10:52.270Z,12.07
2019-02-20T01:13:18.911Z,12.67
2019-02-20T01:15:45.478Z,12.00
2019-02-20T01:18:11.843Z,12.40
2019-02-20T01:20:39.470Z,12.30
2019-02-20T01:23:06.055Z,11.60
2019-02-20T01:25:32.376Z,13.70
2019-02-20T01:27:58.966Z,12.80
2019-02-20T01:30:25.549Z,12.63
2019-02-20T01:32:51.871Z,14.00
2019-02-20T01:35:18.230Z,13.70
2019-02-20T01:37:44.822Z,13.73
2019-02-20T01:40:11.153Z,12.00
2019-02-20T01:42:37.465Z,12.97
2019-02-20T01:45:05.927Z,11.57
2019-02-20T01:47:32.269Z,14.47
2019-02-20T01:49:58.867Z,11.50
2019-02-20T01:52:25.467Z,14.40
2019-02-20T01:54:51.995Z,12.13
2019-02-20T01:57:18.608Z,13.00
2019-02-20T01:59:45.023Z,13.03
2019-02-20T02:02:11.350Z,13.47
2019-02-20T02:04:37.948Z,11.87
2019-02-20T02:07:04.259Z,13.33
2019-02-20T02:09:30.565Z,13.60
2019-02-20T02:11:57.138Z,14.33
2019-02-20T02:14:23.517Z,13.80
2019-02-20T02:16:50.106Z,13.50
2019-02-20T02:19:16.798Z,13.03
2019-02-20T02:21:43.110Z,14.63
2019-02-20T02:24:09.708Z,12.17
2019-02-20T02:26:36.029Z,12.93
2019-02-20T02:29:02.638Z,13.50
2019-02-20T02:31:28.956Z,14.43
2019-02-20T02:33:55.317Z,13.17
2019-02-20T02:36:21.648Z,11.47
2019-02-20T02:38:48.208Z,14.17
2019-02-20T02:41:15.557Z,13.30
2019-02-20T02:43:42.141Z,12.50
2019-02-20T02:46:08.779Z,14.03
2019-02-20T02:48:35.111Z,13.80
2019-02-20T02:51:01.448Z,13.53
2019-02-20T02:53:30.762Z,13.90
2019-02-20T02:55:56.307Z,12.83
2019-02-20T02:58:22.636Z,12.80
2019-02-20T03:00:48.942Z,13.80
2019-02-20T03:03:15.398Z,12.70
2019-02-20T03:05:42.971Z,12.57
2019-02-20T03:08:09.286Z,13.67
2019-02-20T03:10:35.616Z,13.00
2019-02-20T03:13:01.935Z,13.60
2019-02-20T03:15:28.277Z,13.50
2019-02-20T03:17:54.579Z,14.10
2019-02-20T03:20:20.908Z,14.53
2019-02-20T03:22:48.299Z,14.90
2019-02-20T03:25:14.652Z,13.97
2019-02-20T03:27:41.222Z,14.20
2019-02-20T03:30:07.858Z,13.47
2019-02-20T03:32:34.198Z,13.07
2019-02-20T03:35:00.741Z,13.90
2019-02-20T03:37:27.065Z,13.63
2019-02-20T03:39:53.445Z,13.70
2019-02-20T03:42:20.085Z,13.17
2019-02-20T03:44:46.678Z,14.63
2019-02-20T03:47:12.997Z,12.57
2019-02-20T03:49:39.348Z,13.27
2019-02-20T03:52:06.021Z,12.50
2019-02-20T03:54:32.468Z,13.57
2019-02-20T03:57:00.252Z,14.03
2019-02-20T03:59:26.825Z,13.00
2019-02-20T04:01:53.159Z,12.50
2019-02-20T04:04:19.486Z,13.90
2019-02-20T04:06:46.064Z,13.07
2019-02-20T04:09:12.422Z,12.57
2019-02-20T04:11:38.752Z,11.33
2019-02-20T04:14:05.106Z,12.63
2019-02-20T04:16:32.078Z,14.23
2019-02-20T04:18:58.845Z,12.47
2019-02-20T04:21:28.164Z,13.27
2019-02-20T04:24:01.837Z,13.10
2019-02-20T04:26:22.712Z,13.10
2019-02-20T04:28:49.121Z,14.60
2019-02-20T04:31:15.819Z,13.60
2019-02-20T04:33:42.220Z,14.23
2019-02-20T04:36:09.891Z,13.60
2019-02-20T04:38:36.507Z,12.70
2019-02-20T04:41:02.835Z,12.83
2019-02-20T04:43:29.541Z,15.17
2019-02-20T04:45:55.985Z,13.13
2019-02-20T04:48:22.430Z,12.23
2019-02-20T04:50:48.747Z,12.70
2019-02-20T04:53:15.095Z,14.43
2019-02-20T04:55:41.414Z,16.67
2019-02-20T04:58:21.461Z,13.60
2019-02-20T05:00:47.961Z,13.90
2019-02-20T05:03:14.542Z,13.27
2019-02-20T05:05:40.848Z,14.33
2019-02-20T05:08:07.175Z,13.90
2019-02-20T05:10:33.778Z,14.73
2019-02-20T05:13:00.130Z,14.23
2019-02-20T05:15:26.710Z,14.33
2019-02-20T05:17:53.133Z,15.00
2019-02-20T05:20:19.759Z,13.83
2019-02-20T05:22:46.088Z,14.10
2019-02-20T05:25:12.421Z,13.23
2019-02-20T05:27:38.759Z,13.80
2019-02-20T05:30:09.414Z,15.50
2019-02-20T05:32:35.796Z,15.20
2019-02-20T05:35:02.209Z,14.33
2019-02-20T05:37:28.655Z,13.57
2019-02-20T05:39:54.964Z,14.20
2019-02-20T05:42:21.307Z,13.10
2019-02-20T05:44:47.649Z,12.27
2019-02-20T05:47:14.221Z,13.30
2019-02-20T05:49:40.612Z,13.13
2019-02-20T05:52:07.160Z,13.77
2019-02-20T05:54:35.052Z,14.20
2019-02-20T05:57:01.704Z,13.33
2019-02-20T05:59:28.444Z,14.10
2019-02-20T06:01:54.789Z,13.60
2019-02-20T06:04:21.402Z,15.13
2019-02-20T06:06:47.738Z,13.97
2019-02-20T06:09:14.069Z,13.40
2019-02-20T06:11:41.252Z,13.57
2019-02-20T06:14:07.825Z,14.30
2019-02-20T06:16:34.146Z,12.07
2019-02-20T06:19:00.672Z,12.33
2019-02-20T06:21:26.998Z,13.63
2019-02-20T06:23:53.590Z,14.43
2019-02-20T06:26:19.903Z,14.00
2019-02-20T06:28:46.233Z,15.40
2019-02-20T06:31:12.546Z,14.20
2019-02-20T06:33:38.928Z,13.70
2019-02-20T06:36:05.277Z,13.83
2019-02-20T06:38:31.594Z,13.37
2019-02-20T06:40:57.912Z,14.60
2019-02-20T06:43:24.224Z,12.60
2019-02-20T06:45:50.875Z,14.00
2019-02-20T06:48:17.204Z,12.40
2019-02-20T06:50:43.521Z,12.97
2019-02-20T06:53:09.851Z,13.10
2019-02-20T06:55:36.422Z,12.50
2019-02-20T06:58:02.786Z,13.53
2019-02-20T07:00:29.128Z,13.40
2019-02-20T07:02:55.700Z,13.50
2019-02-20T07:05:37.248Z,12.97
2019-02-20T07:08:29.953Z,13.00
2019-02-20T07:11:24.398Z,12.80
2019-02-20T07:14:02.157Z,13.23
2019-02-20T07:17:07.725Z,12.73
2019-02-20T07:19:54.404Z,13.57
2019-02-20T07:22:32.227Z,12.03
2019-02-20T07:25:15.918Z,13.23
2019-02-20T07:27:59.865Z,12.90
2019-02-20T07:30:26.488Z,13.07
2019-02-20T07:32:53.092Z,13.20
2019-02-20T07:35:19.670Z,13.77
2019-02-20T07:37:46.054Z,13.77
2019-02-20T07:40:12.720Z,13.43
2019-02-20T07:42:39.351Z,12.93
2019-02-20T07:45:08.637Z,11.20
2019-02-20T07:47:35.664Z,13.17
2019-02-20T07:50:02.686Z,12.70
2019-02-20T07:52:29.337Z,12.13
2019-02-20T07:54:56.020Z,14.03
2019-02-20T07:57:22.377Z,12.43
2019-02-20T07:59:49.712Z,13.10
2019-02-20T08:02:16.048Z,11.73
2019-02-20T08:04:42.440Z,13.60
2019-02-20T08:07:08.720Z,12.00
2019-02-20T08:09:35.039Z,13.17
2019-02-20T08:12:01.362Z,13.33
2019-02-20T08:14:28.267Z,14.07
2019-02-20T08:16:54.598Z,12.73
2019-02-20T08:19:21.948Z,12.90
2019-02-20T08:21:51.435Z,12.50
2019-02-20T08:24:18.467Z,12.60
2019-02-20T08:26:44.774Z,12.10
2019-02-20T08:29:11.403Z,12.80
2019-02-20T08:31:38.004Z,12.03
2019-02-20T08:34:04.360Z,12.37
2019-02-20T08:36:31.926Z,12.13
2019-02-20T08:38:58.282Z,14.07
2019-02-20T08:41:26.123Z,12.83
2019-02-20T08:43:52.786Z,12.47
2019-02-20T08:46:19.398Z,12.50
2019-02-20T08:48:45.907Z,12.43
2019-02-20T08:51:12.269Z,10.63
2019-02-20T08:53:38.605Z,12.87
2019-02-20T08:56:05.312Z,12.03
2019-02-20T08:58:31.600Z,13.47
2019-02-20T09:00:58.171Z,12.73
2019-02-20T09:03:24.817Z,14.50
2019-02-20T09:05:51.106Z,12.40
2019-02-20T09:08:17.702Z,12.70
2019-02-20T09:10:44.008Z,12.70
2019-02-20T09:13:10.666Z,11.17
2019-02-20T09:15:36.992Z,12.83
2019-02-20T09:18:03.367Z,11.87
2019-02-20T09:20:29.951Z,13.20
2019-02-20T09:22:56.285Z,13.50
2019-02-20T09:25:22.874Z,14.20
2019-02-20T09:27:49.581Z,13.77
2019-02-20T09:30:16.075Z,13.20
2019-02-20T09:32:44.888Z,14.03
2019-02-20T09:35:11.365Z,12.43
2019-02-20T09:37:38.154Z,13.97
2019-02-20T09:40:12.813Z,14.20
2019-02-20T09:42:39.827Z,14.53
2019-02-20T09:45:07.573Z,13.40
2019-02-20T09:47:35.127Z,13.67
2019-02-20T09:50:05.503Z,13.17
2019-02-20T09:52:32.657Z,13.77
2019-02-20T09:54:58.978Z,14.50
2019-02-20T09:57:25.324Z,13.97
2019-02-20T09:59:51.955Z,14.70
2019-02-20T10:02:18.298Z,14.50
2019-02-20T10:04:44.909Z,13.90
2019-02-20T10:07:11.259Z,13.50
2019-02-20T10:09:37.600Z,12.80
2019-02-20T10:12:04.203Z,14.97
2019-02-20T10:14:30.878Z,14.10
2019-02-20T10:17:00.851Z,13.53
2019-02-20T10:19:27.976Z,14.00
2019-02-20T10:21:57.067Z,15.30
2019-02-20T10:24:23.686Z,12.80
2019-02-20T10:26:50.047Z,14.30
2019-02-20T10:29:16.735Z,14.00
2019-02-20T10:31:43.381Z,15.13
2019-02-20T10:34:11.197Z,13.20
2019-02-20T10:36:37.682Z,15.03
2019-02-20T10:39:04.994Z,16.60
2019-02-20T10:41:32.926Z,15.83
2019-02-20T10:43:59.283Z,14.80
2019-02-20T10:46:25.900Z,14.07
2019-02-20T10:48:52.263Z,14.17
2019-02-20T10:51:19.955Z,15.20
2019-02-20T10:53:46.275Z,14.90
2019-02-20T10:56:12.615Z,15.30
2019-02-20T10:58:38.992Z,14.33
2019-02-20T11:01:06.454Z,14.00
2019-02-20T11:03:32.847Z,15.43
2019-02-20T11:05:59.176Z,14.63
2019-02-20T11:08:25.801Z,12.40
2019-02-20T11:10:52.388Z,13.93
2019-02-20T11:13:21.617Z,12.73
2019-02-20T11:15:47.977Z,13.27
2019-02-20T11:18:14.382Z,14.23
2019-02-20T11:20:48.303Z,13.13
2019-02-20T11:23:09.205Z,12.20
2019-02-20T11:25:35.836Z,12.50
2019-02-20T11:28:02.145Z,12.10
2019-02-20T11:30:28.765Z,12.00
2019-02-20T11:32:55.132Z,12.10
2019-02-20T11:35:21.479Z,11.43
2019-02-20T11:37:48.130Z,11.53
2019-02-20T11:40:14.500Z,12.43
2019-02-20T11:42:41.896Z,11.50
2019-02-20T11:45:11.618Z,10.60
2019-02-20T11:47:38.010Z,11.10
2019-02-20T11:50:07.931Z,10.10
2019-02-20T11:52:38.453Z,11.73
2019-02-20T11:55:05.793Z,10.90
2019-02-20T11:57:32.390Z,11.40
2019-02-20T11:59:58.735Z,9.53
2019-02-20T12:02:25.495Z,10.60
2019-02-20T12:04:51.882Z,7.90
2019-02-20T12:07:18.472Z,7.70
2019-02-20T12:09:45.400Z,7.23
2019-02-20T12:12:11.928Z,7.60
2019-02-20T12:14:38.626Z,7.57
2019-02-20T12:17:04.992Z,7.77
2019-02-20T12:19:31.484Z,7.53
2019-02-20T12:21:57.825Z,7.23
2019-02-20T12:24:24.487Z,7.30
2019-02-20T12:26:50.828Z,7.57
2019-02-20T12:29:17.160Z,6.83
2019-02-20T12:31:52.129Z,7.27
2019-02-20T12:34:12.065Z,7.90
2019-02-20T12:36:38.651Z,6.53
2019-02-20T12:39:05.342Z,6.57
2019-02-20T12:41:36.565Z,7.77
2019-02-20T12:44:03.311Z,6.50
2019-02-20T12:46:29.934Z,8.00
2019-02-20T12:48:56.227Z,5.60
2019-02-20T12:51:22.849Z,6.50
2019-02-20T12:53:49.160Z,5.67
2019-02-20T12:56:15.540Z,5.63
2019-02-20T12:58:41.933Z,5.00
2019-02-20T13:01:08.578Z,6.33
2019-02-20T13:03:34.882Z,5.47
2019-02-20T13:06:01.275Z,4.90
2019-02-20T13:08:28.049Z,5.03
2019-02-20T13:10:54.465Z,6.30
2019-02-20T13:13:20.808Z,5.87
2019-02-20T13:15:47.501Z,4.57
2019-02-20T13:18:14.268Z,4.57
2019-02-20T13:20:40.837Z,6.13
2019-02-20T13:23:07.152Z,4.77
2019-02-20T13:25:33.767Z,5.43
2019-02-20T13:28:00.100Z,4.20
2019-02-20T13:30:26.692Z,4.80
2019-02-20T13:32:53.278Z,5.40
2019-02-20T13:35:19.625Z,4.80
2019-02-20T13:37:46.538Z,5.43
2019-02-20T13:40:13.145Z,5.40
2019-02-20T13:42:39.480Z,4.60
2019-02-20T13:45:07.672Z,4.37
2019-02-20T13:47:34.027Z,5.90
2019-02-20T13:50:00.380Z,5.53
2019-02-20T13:52:26.790Z,5.90
2019-02-20T13:54:53.391Z,5.43
2019-02-20T13:57:19.934Z,5.07
2019-02-20T13:59:46.256Z,5.40
2019-02-20T14:02:12.567Z,6.50
2019-02-20T14:04:39.176Z,6.50
2019-02-20T14:07:05.499Z,6.80
2019-02-20T14:09:31.847Z,7.47
2019-02-20T14:11:58.525Z,8.53
2019-02-20T14:14:25.089Z,6.07
2019-02-20T14:16:51.988Z,6.73
2019-02-20T14:19:18.583Z,6.53
2019-02-20T14:21:44.976Z,6.80
2019-02-20T14:24:11.603Z,6.80
2019-02-20T14:26:38.275Z,6.40
2019-02-20T14:29:04.615Z,8.00
2019-02-20T14:31:30.995Z,6.30
2019-02-20T14:33:57.597Z,7.60
2019-02-20T14:36:25.992Z,7.93
2019-02-20T14:38:52.303Z,7.90
2019-02-20T14:41:18.642Z,7.30
2019-02-20T14:43:44.938Z,6.90
2019-02-20T14:46:11.348Z,6.87
2019-02-20T14:48:37.646Z,6.63
2019-02-20T14:51:03.993Z,5.33
2019-02-20T14:53:30.321Z,6.10
2019-02-20T14:55:56.966Z,4.97
2019-02-20T14:58:23.568Z,4.23
2019-02-20T15:00:49.903Z,4.40
2019-02-20T15:03:16.355Z,4.10
2019-02-20T15:05:42.974Z,4.40
2019-02-20T15:08:09.768Z,3.03
2019-02-20T15:10:36.195Z,3.47
2019-02-20T15:13:02.500Z,2.70
2019-02-20T15:15:29.102Z,3.23
2019-02-20T15:17:55.713Z,3.00
2019-02-20T15:20:22.058Z,3.20
2019-02-20T15:22:48.400Z,2.63
2019-02-20T15:25:14.802Z,2.83
2019-02-20T15:27:41.128Z,3.50
2019-02-20T15:30:13.877Z,3.23
2019-02-20T15:32:40.248Z,2.80
2019-02-20T15:35:07.016Z,2.27
2019-02-20T15:37:33.969Z,2.57
2019-02-20T15:40:00.599Z,3.43
2019-02-20T15:42:26.912Z,3.03
2019-02-20T15:44:53.259Z,4.17
2019-02-20T15:47:19.860Z,4.57
2019-02-20T15:49:46.164Z,4.73
2019-02-20T15:52:12.476Z,4.03
2019-02-20T15:54:38.802Z,4.03
2019-02-20T15:57:05.763Z,4.53
2019-02-20T15:59:32.123Z,4.70
2019-02-20T16:01:58.467Z,3.67
2019-02-20T16:04:24.787Z,4.40
2019-02-20T16:06:51.159Z,4.80
2019-02-20T16:09:17.756Z,3.90
2019-02-20T16:11:44.150Z,4.30
2019-02-20T16:14:10.472Z,4.30
2019-02-20T16:16:36.794Z,5.27
2019-02-20T16:19:03.791Z,5.07
2019-02-20T16:21:30.381Z,4.00
2019-02-20T16:23:56.743Z,4.40
2019-02-20T16:26:23.398Z,4.40
2019-02-20T16:28:50.022Z,4.83
2019-02-20T16:31:16.338Z,5.17
2019-02-20T16:33:42.955Z,4.33
2019-02-20T16:36:09.514Z,4.53
2019-02-20T16:38:36.215Z,3.80
2019-02-20T16:41:04.639Z,4.50
2019-02-20T16:43:31.524Z,3.27
2019-02-20T16:45:58.081Z,4.73
2019-02-20T16:48:24.413Z,5.13
2019-02-20T16:50:50.969Z,5.37
2019-02-20T16:53:17.706Z,5.70
2019-02-20T16:55:44.299Z,5.63
2019-02-20T16:58:10.642Z,5.67
2019-02-20T17:00:37.839Z,6.07
2019-02-20T17:03:04.255Z,7.13
2019-02-20T17:05:30.919Z,6.90
2019-02-20T17:07:57.220Z,5.80
2019-02-20T17:10:23.866Z,4.77
2019-02-20T17:12:50.230Z,6.00
2019-02-20T17:15:16.686Z,6.50
2019-02-20T17:17:43.555Z,5.90
2019-02-20T17:20:17.723Z,5.83
2019-02-20T17:22:44.370Z,7.00
2019-02-20T17:25:11.975Z,6.87
2019-02-20T17:27:38.832Z,6.50
2019-02-20T17:30:12.289Z,6.80
2019-02-20T17:32:38.865Z,7.90
2019-02-20T17:35:08.325Z,7.53
2019-02-20T17:37:35.891Z,7.20
2019-02-20T17:40:05.293Z,9.50
2019-02-20T17:42:31.651Z,7.70
2019-02-20T17:44:58.324Z,7.63
2019-02-20T17:47:25.037Z,7.53
2019-02-20T17:49:52.648Z,7.30
2019-02-20T17:52:19.204Z,7.87
2019-02-20T17:54:45.671Z,8.13
2019-02-20T17:57:12.025Z,8.43
2019-02-20T17:59:38.668Z,8.10
2019-02-20T18:02:05.108Z,8.40
2019-02-20T18:04:31.444Z,7.70
2019-02-20T18:06:57.761Z,9.77
2019-02-20T18:09:24.103Z,9.60
2019-02-20T18:11:50.519Z,9.60
2019-02-20T18:14:17.070Z,9.30
2019-02-20T18:16:43.647Z,9.03
2019-02-20T18:19:09.981Z,9.57
2019-02-20T18:21:36.646Z,9.77
2019-02-20T18:24:03.219Z,10.70
2019-02-20T18:26:29.656Z,9.27
2019-02-20T18:28:56.368Z,10.97
2019-02-20T18:31:23.000Z,11.07
2019-02-20T18:33:49.778Z,9.20
2019-02-20T18:36:18.290Z,10.50
2019-02-20T18:38:44.653Z,11.03
2019-02-20T18:41:11.018Z,10.93
2019-02-20T18:43:38.207Z,10.70
2019-02-20T18:46:04.592Z,11.07
2019-02-20T18:48:31.058Z,10.97
2019-02-20T18:50:57.425Z,10.10
2019-02-20T18:53:23.757Z,10.70
2019-02-20T18:55:50.089Z,9.57
2019-02-20T18:58:18.874Z,11.13
2019-02-20T19:00:45.183Z,11.13
2019-02-20T19:03:11.619Z,11.30
2019-02-20T19:05:38.297Z,10.63
2019-02-20T19:08:36.596Z,10.17
2019-02-20T19:11:29.387Z,10.70
2019-02-20T19:14:10.472Z,10.53
2019-02-20T19:16:52.275Z,11.97
2019-02-20T19:19:59.427Z,11.47
2019-02-20T19:22:55.247Z,10.23
2019-02-20T19:25:45.234Z,10.73
2019-02-20T19:28:53.303Z,10.83
2019-02-20T19:31:37.490Z,9.77
2019-02-20T19:34:40.058Z,9.20
2019-02-20T19:37:26.184Z,11.27
2019-02-20T19:39:58.519Z,9.20
2019-02-20T19:42:46.206Z,10.63
2019-02-20T19:45:38.872Z,9.30
2019-02-20T19:48:23.235Z,9.23
2019-02-20T19:51:10.233Z,9.60
2019-02-20T19:53:48.537Z,9.60
2019-02-20T19:56:26.424Z,10.30
2019-02-20T19:59:22.592Z,9.20
2019-02-20T20:02:11.339Z,10.17
2019-02-20T20:05:15.059Z,10.60
2019-02-20T20:08:11.157Z,11.47
2019-02-20T20:11:20.541Z,10.77
2019-02-20T20:14:04.210Z,10.60
2019-02-20T20:17:09.631Z,11.77
2019-02-20T20:20:12.291Z,9.80
2019-02-20T20:22:50.558Z,11.40
2019-02-20T20:25:45.675Z,12.57
2019-02-20T20:28:23.696Z,11.13
2019-02-20T20:31:01.888Z,10.70
2019-02-20T20:33:49.428Z,11.03
2019-02-20T20:36:44.497Z,11.33
2019-02-20T20:39:53.222Z,10.67
2019-02-20T20:42:44.710Z,11.77
2019-02-20T20:45:28.528Z,12.17
2019-02-20T20:48:16.020Z,11.87
2019-02-20T20:51:27.465Z,12.17
2019-02-20T20:54:30.368Z,11.43
2019-02-20T20:57:19.887Z,11.87
2019-02-20T21:00:43.191Z,11.13
2019-02-20T21:03:15.256Z,12.13
2019-02-20T21:06:01.986Z,11.60
2019-02-20T21:08:43.442Z,12.60
2019-02-20T21:11:18.429Z,11.10
2019-02-20T21:14:11.317Z,12.43
2019-02-20T21:16:49.040Z,12.33
2019-02-20T21:19:33.644Z,12.50
2019-02-20T21:22:51.709Z,13.13
2019-02-20T21:25:51.274Z,11.77
2019-02-20T21:28:48.499Z,12.67
2019-02-20T21:31:53.991Z,11.33
2019-02-20T21:34:44.397Z,11.40
2019-02-20T21:37:34.463Z,11.60
2019-02-20T21:40:27.643Z,12.47
2019-02-20T21:43:19.100Z,12.43
2019-02-20T21:46:20.130Z,11.70
2019-02-20T21:49:21.862Z,12.47
2019-02-20T21:52:19.272Z,12.37
2019-02-20T21:55:22.556Z,12.80
2019-02-20T21:58:04.783Z,11.63
2019-02-20T22:00:42.616Z,11.37
2019-02-20T22:03:43.772Z,11.00
2019-02-20T22:06:18.789Z,10.67
2019-02-20T22:09:26.457Z,10.80
2019-02-20T22:12:31.711Z,11.13
2019-02-20T22:15:20.207Z,9.70
2019-02-20T22:18:10.256Z,10.87
2019-02-20T22:21:14.427Z,10.70
2019-02-20T22:23:52.285Z,10.00
2019-02-20T22:26:30.271Z,10.77
2019-02-20T22:29:11.170Z,10.43
2019-02-20T22:32:14.245Z,10.00
2019-02-20T22:35:15.589Z,9.13
2019-02-20T22:38:17.804Z,10.63
2019-02-20T22:40:53.094Z,10.20
2019-02-20T22:43:59.315Z,11.37
2019-02-20T22:46:49.832Z,10.50
2019-02-20T22:49:46.111Z,12.67
2019-02-20T22:52:21.219Z,11.37
2019-02-20T22:55:08.127Z,12.87
2019-02-20T22:57:42.924Z,13.77
2019-02-20T23:00:52.084Z,12.80
2019-02-20T23:03:46.961Z,12.77
2019-02-20T23:06:48.976Z,11.77
2019-02-20T23:09:38.668Z,10.63
2019-02-20T23:12:48.473Z,12.27
2019-02-20T23:15:14.885Z,11.33
2019-02-20T23:17:41.705Z,13.60
2019-02-20T23:20:08.037Z,11.00
2019-02-20T23:22:34.675Z,12.90
2019-02-20T23:25:01.005Z,12.63
2019-02-20T23:27:27.409Z,12.10
2019-02-20T23:29:53.758Z,12.37
2019-02-20T23:32:20.187Z,11.57
2019-02-20T23:34:46.833Z,13.63
2019-02-20T23:37:13.197Z,12.93
2019-02-20T23:39:39.661Z,13.50
2019-02-20T23:42:06.230Z,13.07
2019-02-20T23:44:32.644Z,13.97
2019-02-20T23:46:59.256Z,12.97
2019-02-20T23:49:25.666Z,15.23
2019-02-20T23:51:52.224Z,15.00
2019-02-20T23:54:18.578Z,13.73
2019-02-20T23:56:45.227Z,12.23
2019-02-20T23:59:13.790Z,14.90
